Time;durP1;ratioP1;P1;durP2;ratioP2;P2;SDS_P1;SDS_P2;PMS_P1;PMS_P2;Temp;Humidity;BMP_temperature;BMP_pressure;BME280_temperature;BME280_humidity;BME280_pressure;Samples;Min_cycle;Max_cycle;Signal;HPM_P1;HPM_P2
2023/10/19 00:01:24;;;;;;;15.87;11.30;;;;;;;15.45;100.00;99191.28;5227604;28;20076;-79
2023/10/19 00:03:59;;;;;;;11.70;10.60;;;;;;;15.24;100.00;99155.69;5243594;28;20109;-79
2023/10/19 00:06:30;;;;;;;12.40;10.20;;;;;;;15.21;100.00;99131.44;5227080;28;20469;-79
2023/10/19 00:09:02;;;;;;;14.60;12.53;;;;;;;15.32;100.00;99130.31;5227556;28;20033;-79
2023/10/19 00:11:35;;;;;;;13.83;10.53;;;;;;;15.45;100.00;99186.03;5226686;28;20132;-80
2023/10/19 00:14:15;;;;;;;12.90;11.57;;;;;;;15.19;100.00;99158.00;5242838;28;20438;-80
2023/10/19 00:16:53;;;;;;;12.33;10.80;;;;;;;15.12;100.00;99152.53;5226834;28;20027;-80
2023/10/19 00:19:27;;;;;;;13.80;10.67;;;;;;;15.31;100.00;99162.94;5227011;28;20094;-79
2023/10/19 00:22:08;;;;;;;12.03;10.43;;;;;;;15.74;100.00;99189.16;5226609;28;20025;-80
2023/10/19 00:24:41;;;;;;;12.53;11.23;;;;;;;15.55;100.00;99158.66;5227654;28;20116;-80
2023/10/19 00:27:17;;;;;;;12.27;10.97;;;;;;;15.51;100.00;99146.78;5226162;28;20165;-80
2023/10/19 00:29:49;;;;;;;10.97;9.87;;;;;;;15.36;100.00;99131.59;5242127;28;20453;-80
2023/10/19 00:32:24;;;;;;;11.30;9.93;;;;;;;15.56;100.00;99152.38;5226660;28;20033;-80
2023/10/19 00:34:56;;;;;;;12.57;10.80;;;;;;;15.56;100.00;99144.47;5227362;28;20240;-80
2023/10/19 00:37:27;;;;;;;11.30;9.83;;;;;;;15.63;100.00;99144.63;5227255;28;20032;-79
2023/10/19 00:40:14;;;;;;;10.80;9.70;;;;;;;15.86;100.00;99144.75;5226749;28;20025;-79
2023/10/19 00:42:46;;;;;;;11.97;10.23;;;;;;;15.78;100.00;99136.84;5226668;28;20025;-80
2023/10/19 00:45:24;;;;;;;12.53;10.23;;;;;;;15.93;100.00;99166.84;5226953;28;20377;-79
2023/10/19 00:47:58;;;;;;;11.20;10.10;;;;;;;15.78;100.00;99139.50;5226302;28;20033;-80
2023/10/19 00:50:31;;;;;;;12.88;10.25;;;;;;;15.97;100.00;99151.47;5242608;28;20138;-80
2023/10/19 00:53:07;;;;;;;11.43;9.10;;;;;;;15.83;100.00;99121.34;5242021;28;20148;-80
2023/10/19 00:55:39;;;;;;;11.97;9.37;;;;;;;15.91;100.00;99126.59;5225931;28;20017;-80
2023/10/19 00:58:17;;;;;;;11.33;8.87;;;;;;;16.25;100.00;99142.34;5225995;28;20033;-79
2023/10/19 01:00:50;;;;;;;10.53;9.43;;;;;;;16.15;100.00;99119.59;5227207;28;20028;-79
2023/10/19 01:03:21;;;;;;;17.07;8.57;;;;;;;16.29;100.00;99144.47;5227216;28;20056;-80
2023/10/19 01:05:54;;;;;;;12.50;8.33;;;;;;;16.34;100.00;99141.31;5211407;28;20104;-80
2023/10/19 01:08:31;;;;;;;9.43;7.57;;;;;;;16.07;100.00;99130.19;5220792;28;20026;-80
2023/10/19 01:11:04;;;;;;;12.03;7.73;;;;;;;16.30;100.00;99124.16;5205297;28;20436;-79
2023/10/19 01:13:35;;;;;;;10.03;6.57;;;;;;;16.43;100.00;99140.28;5205798;28;20030;-80
2023/10/19 01:16:15;;;;;;;8.30;7.10;;;;;;;16.63;100.00;99154.88;5205916;28;20477;-79
2023/10/19 01:18:53;;;;;;;9.97;6.63;;;;;;;16.32;100.00;99138.00;5206580;28;20022;-80
2023/10/19 01:21:27;;;;;;;7.77;6.57;;;;;;;16.74;100.00;99167.69;5215222;28;20037;-80
2023/10/19 01:23:59;;;;;;;10.15;6.28;;;;;;;16.81;100.00;99168.66;5225966;28;20461;-80
2023/10/19 01:26:30;;;;;;;7.53;6.33;;;;;;;16.59;100.00;99130.63;5225937;28;20034;-80
2023/10/19 01:29:07;;;;;;;6.30;5.50;;;;;;;16.80;100.00;99129.19;5241816;28;20037;-79
2023/10/19 01:31:51;;;;;;;11.97;6.83;;;;;;;16.97;100.00;99143.09;5226056;28;20025;-79
2023/10/19 01:34:22;;;;;;;7.17;5.70;;;;;;;17.03;100.00;99141.59;5225085;28;20022;-80
2023/10/19 01:36:55;;;;;;;7.60;5.77;;;;;;;16.83;100.00;99117.41;5224263;28;20044;-80
2023/10/19 01:39:27;;;;;;;6.97;5.90;;;;;;;16.79;100.00;99112.47;5226514;28;20033;-80
2023/10/19 01:41:58;;;;;;;7.57;5.77;;;;;;;16.72;100.00;99106.25;5226940;28;20468;-80
2023/10/19 01:44:30;;;;;;;7.37;5.53;;;;;;;16.68;100.00;99105.81;5230047;28;20497;-79
2023/10/19 01:47:03;;;;;;;7.63;5.90;;;;;;;16.99;100.00;99153.50;5230573;28;20069;-80
2023/10/19 01:49:37;;;;;;;8.63;5.63;;;;;;;16.83;100.00;99143.84;5229290;28;20388;-80
2023/10/19 01:52:10;;;;;;;8.37;5.77;;;;;;;16.57;100.00;99108.81;5230082;28;20021;-80
2023/10/19 01:54:42;;;;;;;10.60;5.70;;;;;;;16.75;100.00;99126.22;5245362;28;20418;-80
2023/10/19 01:57:14;;;;;;;5.73;4.90;;;;;;;16.89;100.00;99112.28;5229160;28;20032;-79
2023/10/19 01:59:46;;;;;;;8.87;4.20;;;;;;;17.06;100.00;99104.19;5211977;28;20040;-80
2023/10/19 02:02:18;;;;;;;8.80;4.40;;;;;;;17.20;100.00;99122.97;5230028;28;20034;-80
2023/10/19 02:04:51;;;;;;;6.60;3.60;;;;;;;17.05;100.00;99115.78;5229921;28;20500;-80
2023/10/19 02:07:23;;;;;;;7.33;2.67;;;;;;;17.35;100.00;99158.22;5245087;28;20029;-79
2023/10/19 02:09:54;;;;;;;9.37;3.23;;;;;;;17.34;100.00;99153.09;5230308;28;20561;-79
2023/10/19 02:12:25;;;;;;;6.33;3.13;;;;;;;17.19;100.00;99131.91;5228297;28;20056;-79
2023/10/19 02:14:57;;;;;;;4.47;2.77;;;;;;;17.36;100.00;99151.13;5230019;28;20516;-79
2023/10/19 02:17:30;;;;;;;6.63;2.43;;;;;;;17.47;100.00;99149.88;5229216;28;20033;-79
2023/10/19 02:20:17;;;;;;;8.43;2.17;;;;;;;17.19;100.00;99105.47;5245078;28;20029;-79
2023/10/19 02:22:48;;;;;;;5.17;1.57;;;;;;;17.22;100.00;99105.94;5228343;28;20032;-80
2023/10/19 02:25:21;;;;;;;3.83;1.20;;;;;;;17.26;100.00;99104.56;5229888;28;20029;-80
2023/10/19 02:27:52;;;;;;;3.57;1.60;;;;;;;17.27;100.00;99092.97;5228131;28;20049;-80
2023/10/19 02:30:24;;;;;;;5.27;1.50;;;;;;;17.45;100.00;99126.25;5229554;28;20031;-79
2023/10/19 02:32:56;;;;;;;4.60;1.40;;;;;;;17.62;100.00;99126.91;5229561;28;20127;-79
2023/10/19 02:35:28;;;;;;;6.50;1.50;;;;;;;17.47;100.00;99104.88;5229247;28;20721;-79
2023/10/19 02:37:59;;;;;;;2.87;1.10;;;;;;;17.72;100.00;99131.09;5228123;28;20025;-79
2023/10/19 02:40:31;;;;;;;6.50;1.27;;;;;;;17.57;100.00;99097.50;5227408;28;20025;-79
2023/10/19 02:43:04;;;;;;;3.27;1.57;;;;;;;17.78;100.00;99125.09;5228378;28;20033;-79
2023/10/19 02:45:36;;;;;;;2.92;1.10;;;;;;;17.68;100.00;99140.41;5229242;28;20380;-79
2023/10/19 02:48:11;;;;;;;5.83;1.93;;;;;;;17.61;100.00;99108.56;5228998;28;20017;-79
2023/10/19 02:50:43;;;;;;;4.57;1.50;;;;;;;17.81;100.00;99134.47;5228913;28;20021;-79
2023/10/19 02:53:14;;;;;;;5.57;1.30;;;;;;;17.77;100.00;99129.53;5228706;28;20030;-79
2023/10/19 02:55:45;;;;;;;5.47;1.77;;;;;;;17.55;100.00;99107.44;5227600;28;20135;-79
2023/10/19 02:58:17;;;;;;;4.80;1.60;;;;;;;17.51;100.00;99082.31;5226462;28;20025;-79
2023/10/19 03:00:48;;;;;;;6.40;1.90;;;;;;;17.63;100.00;99109.16;5228475;28;20116;-79
2023/10/19 03:03:20;;;;;;;9.10;2.50;;;;;;;17.70;100.00;99093.41;5227862;28;20025;-79
2023/10/19 03:05:52;;;;;;;5.70;1.80;;;;;;;17.90;100.00;99105.09;5229518;28;20032;-79
2023/10/19 03:08:26;;;;;;;2.37;1.37;;;;;;;17.61;100.00;99093.47;5228325;28;20038;-79
2023/10/19 03:11:13;;;;;;;6.75;2.28;;;;;;;17.61;100.00;99098.75;5243322;28;20026;-79
2023/10/19 03:13:44;;;;;;;5.10;1.80;;;;;;;17.61;100.00;99105.91;5228663;28;20029;-79
2023/10/19 03:16:19;;;;;;;5.80;1.30;;;;;;;17.56;100.00;99095.84;5226954;28;20036;-79
2023/10/19 03:18:50;;;;;;;;;;;;;;;18.50;100.00;99132.56;5228743;28;20296;-79
2023/10/19 03:21:26;;;;;;;4.73;1.63;;;;;;;17.56;100.00;99095.84;5228785;28;19953;-79
2023/10/19 03:24:01;;;;;;;4.33;1.47;;;;;;;17.50;100.00;99076.22;5228541;28;20021;-79
2023/10/19 03:26:37;;;;;;;7.53;2.00;;;;;;;17.57;100.00;99096.66;5242483;28;20037;-79
2023/10/19 03:29:12;;;;;;;5.47;2.00;;;;;;;17.77;100.00;99107.53;5227719;28;20021;-79
2023/10/19 03:31:43;;;;;;;3.43;1.33;;;;;;;17.46;100.00;99069.66;5228845;28;20112;-79
2023/10/19 03:34:17;;;;;;;4.10;1.37;;;;;;;17.49;100.00;99074.56;5228155;28;20040;-79
2023/10/19 03:36:50;;;;;;;6.38;1.60;;;;;;;17.56;100.00;99082.59;5228466;28;20021;-79
2023/10/19 03:39:24;;;;;;;4.37;1.57;;;;;;;17.73;100.00;99104.44;5226662;28;20048;-79
2023/10/19 03:41:55;;;;;;;6.90;1.95;;;;;;;17.63;100.00;99091.47;5227692;28;20025;-79
2023/10/19 03:44:31;;;;;;;6.47;1.20;;;;;;;17.38;100.00;99067.09;5253481;28;20033;-79
2023/10/19 03:47:11;;;;;;;4.30;1.50;;;;;;;17.64;100.00;99077.25;5239482;28;20948;-79
2023/10/19 03:49:43;;;;;;;4.67;1.20;;;;;;;17.45;100.00;99085.72;5242618;28;20025;-79
2023/10/19 03:54:47;;;;;;;3.17;1.23;;;;;;;17.53;100.00;99101.50;5235888;28;20045;-79
2023/10/19 03:57:19;;;;;;;5.87;1.50;;;;;;;17.48;100.00;99080.06;5229604;28;20113;-79
2023/10/19 03:59:57;;;;;;;6.47;1.60;;;;;;;17.45;100.00;99064.53;5245200;28;20128;-79
2023/10/19 04:02:35;;;;;;;3.37;0.97;;;;;;;17.62;100.00;99086.38;5228827;28;20514;-79
2023/10/19 04:05:09;;;;;;;5.43;2.37;;;;;;;17.52;100.00;99062.81;5230121;28;20433;-79
2023/10/19 04:07:41;;;;;;;6.00;1.45;;;;;;;17.69;100.00;99092.56;5227711;28;20056;-78
2023/10/19 04:10:29;;;;;;;7.00;2.23;;;;;;;17.50;100.00;99060.34;5227241;28;20544;-79
2023/10/19 04:13:01;;;;;;;4.83;1.70;;;;;;;17.79;100.00;99094.94;5228053;28;20041;-79
2023/10/19 04:15:35;;;;;;;6.60;2.30;;;;;;;17.64;100.00;99076.41;5227505;28;20029;-79
2023/10/19 04:18:10;;;;;;;2.87;1.43;;;;;;;17.70;100.00;99085.47;5226903;28;20025;-79
2023/10/19 04:23:26;;;;;;;6.40;2.13;;;;;;;17.76;100.00;99074.97;5227272;28;20072;-79
2023/10/19 04:25:58;;;;;;;7.13;3.67;;;;;;;17.66;100.00;99072.56;5242237;28;20402;-79
2023/10/19 04:28:44;;;;;;;6.13;2.73;;;;;;;17.62;100.00;99066.03;5242196;28;20032;-79
2023/10/19 04:31:18;;;;;;;6.97;2.73;;;;;;;17.70;100.00;99101.34;5227942;28;20045;-79
2023/10/19 04:33:49;;;;;;;4.43;2.20;;;;;;;17.43;100.00;99062.06;5225404;28;20117;-79
2023/10/19 04:36:22;;;;;;;4.90;2.50;;;;;;;17.49;100.00;99068.47;5227249;28;20508;-79
2023/10/19 04:38:55;;;;;;;8.13;3.67;;;;;;;17.47;100.00;99071.28;5227305;28;20476;-79
2023/10/19 04:41:29;;;;;;;6.37;2.70;;;;;;;17.67;100.00;99097.22;5224697;28;20021;-79
2023/10/19 04:44:01;;;;;;;6.00;2.35;;;;;;;17.61;100.00;99082.88;5226909;28;20032;-79
2023/10/19 04:46:33;;;;;;;4.77;1.97;;;;;;;17.53;100.00;99082.97;5227502;28;20033;-79
2023/10/19 04:49:04;;;;;;;4.97;2.63;;;;;;;17.46;100.00;99087.34;5242253;28;20029;-79
2023/10/19 04:51:38;;;;;;;5.47;1.90;;;;;;;17.56;100.00;99095.84;5227088;28;20029;-79
2023/10/19 04:54:10;;;;;;;3.45;1.30;;;;;;;16.88;100.00;99070.94;5241800;28;20037;-79
2023/10/19 04:56:41;;;;;;;3.07;1.10;;;;;;;16.84;100.00;99082.91;5225838;28;20381;-79
2023/10/19 04:59:13;;;;;;;6.30;1.50;;;;;;;16.75;100.00;99102.44;5226854;28;20264;-79
2023/10/19 05:01:44;;;;;;;6.00;1.70;;;;;;;16.74;100.00;99114.03;5227320;28;20029;-79
2023/10/19 05:04:17;;;;;;;8.43;2.50;;;;;;;16.80;100.00;99113.31;5241523;28;20018;-79
2023/10/19 05:06:48;;;;;;;7.00;1.33;;;;;;;16.55;100.00;99071.19;5227301;28;20025;-79
2023/10/19 05:09:19;;;;;;;5.50;1.50;;;;;;;16.73;100.00;99101.78;5227286;28;20480;-79
2023/10/19 05:11:52;;;;;;;10.03;1.80;;;;;;;16.64;100.00;99082.53;5224460;28;20021;-79
2023/10/19 05:14:24;;;;;;;10.60;2.20;;;;;;;16.88;100.00;99109.78;5226140;28;20417;-79
2023/10/19 05:16:55;;;;;;;8.07;2.13;;;;;;;16.78;100.00;99110.03;5230302;28;20013;-79
2023/10/19 05:19:27;;;;;;;7.43;2.23;;;;;;;16.67;100.00;99090.91;5245215;28;20028;-79
2023/10/19 05:22:00;;;;;;;10.40;2.67;;;;;;;16.60;100.00;99076.75;5231384;28;20321;-79
2023/10/19 05:24:32;;;;;;;10.30;3.67;;;;;;;16.59;100.00;99077.78;5230652;28;20049;-79
2023/10/19 05:27:04;;;;;;;10.53;3.83;;;;;;;16.68;100.00;99084.66;5229557;28;20100;-79
2023/10/19 05:29:35;;;;;;;8.03;3.50;;;;;;;16.60;100.00;99089.16;5231121;28;20021;-79
2023/10/19 05:32:09;;;;;;;8.47;3.37;;;;;;;16.87;100.00;99114.25;5245231;28;20028;-79
2023/10/19 05:34:40;;;;;;;9.60;4.33;;;;;;;16.63;100.00;99084.38;5230629;28;20030;-79
2023/10/19 05:37:12;;;;;;;9.77;3.63;;;;;;;16.59;100.00;99093.63;5230253;28;20048;-79
2023/10/19 05:39:44;;;;;;;11.10;3.80;;;;;;;16.49;100.00;99090.38;5230844;28;20022;-79
2023/10/19 05:42:15;;;;;;;10.87;3.47;;;;;;;16.73;100.00;99118.47;5229042;28;20060;-79
2023/10/19 05:44:46;;;;;;;8.03;2.60;;;;;;;16.63;100.00;99091.47;5230797;28;20528;-79
2023/10/19 05:47:18;;;;;;;11.53;2.80;;;;;;;16.64;100.00;99099.22;5230303;28;20025;-79
2023/10/19 05:49:49;;;;;;;9.07;3.03;;;;;;;16.79;100.00;99119.63;5230468;28;20032;-79
2023/10/19 05:52:22;;;;;;;10.57;4.20;;;;;;;16.69;100.00;99106.59;5230009;28;20056;-78
2023/10/19 05:54:53;;;;;;;8.23;3.73;;;;;;;16.74;100.00;99114.03;5229117;28;20034;-78
2023/10/19 05:57:25;;;;;;;11.00;3.50;;;;;;;16.66;100.00;99097.22;5229508;28;20036;-79
2023/10/19 05:59:56;;;;;;;10.83;3.50;;;;;;;16.62;100.00;99095.09;5245278;28;20014;-79
2023/10/19 06:02:27;;;;;;;9.37;3.50;;;;;;;16.52;100.00;99090.03;5229676;28;20036;-79
2023/10/19 06:04:59;;;;;;;9.13;3.17;;;;;;;16.63;100.00;99107.31;5245062;28;20044;-79
2023/10/19 06:07:30;;;;;;;9.77;3.30;;;;;;;16.64;100.00;99098.38;5229818;28;20025;-79
2023/10/19 06:10:04;;;;;;;9.73;2.43;;;;;;;16.79;100.00;99119.63;5229829;28;20433;-79
2023/10/19 06:12:37;;;;;;;10.25;2.50;;;;;;;16.77;100.00;99119.75;5228835;28;20528;-79
2023/10/19 06:15:10;;;;;;;8.80;1.90;;;;;;;16.68;100.00;99116.38;5229689;28;20022;-79
2023/10/19 06:17:43;;;;;;;9.25;1.90;;;;;;;16.67;100.00;99103.31;5229552;28;20025;-79
2023/10/19 06:20:24;;;;;;;5.80;1.83;;;;;;;16.67;100.00;99093.56;5245139;28;20270;-79
2023/10/19 06:23:00;;;;;;;7.70;1.80;;;;;;;16.81;100.00;99120.22;5229696;28;20225;-79
2023/10/19 06:25:36;;;;;;;6.10;1.73;;;;;;;16.81;100.00;99110.50;5229612;28;20087;-79
2023/10/19 06:28:07;;;;;;;7.03;2.23;;;;;;;16.83;100.00;99106.84;5227658;28;20428;-79
2023/10/19 06:30:40;;;;;;;7.67;2.60;;;;;;;16.89;100.00;99114.09;5229467;28;20037;-79
2023/10/19 06:33:11;;;;;;;8.87;2.13;;;;;;;16.86;100.00;99102.03;5227889;28;20113;-79
2023/10/19 06:35:42;;;;;;;12.17;3.60;;;;;;;17.03;100.00;99131.00;5229680;28;20033;-79
2023/10/19 06:38:14;;;;;;;18.63;13.33;;;;;;;16.91;100.00;99120.81;5228990;28;20133;-79
2023/10/19 06:40:46;;;;;;;17.33;9.13;;;;;;;16.90;100.00;99135.06;5228410;28;20238;-78
2023/10/19 06:43:17;;;;;;;7.40;4.17;;;;;;;16.99;100.00;99133.19;5227807;28;20490;-79
2023/10/19 06:45:49;;;;;;;9.07;4.40;;;;;;;17.01;100.00;99143.56;5228671;28;20416;-79
2023/10/19 06:48:21;;;;;;;11.47;2.43;;;;;;;16.98;100.00;99125.44;5229415;28;20036;-79
2023/10/19 06:50:52;;;;;;;9.50;3.80;;;;;;;17.05;100.00;99147.53;5228595;28;20041;-79
2023/10/19 06:53:24;;;;;;;9.27;2.37;;;;;;;16.84;100.00;99125.19;5229098;28;20025;-79
2023/10/19 06:55:55;;;;;;;12.07;3.80;;;;;;;16.95;100.00;99133.72;5228486;28;20048;-79
2023/10/19 06:58:27;;;;;;;9.50;3.77;;;;;;;16.92;100.00;99143.63;5228486;28;20499;-79
2023/10/19 07:01:07;;;;;;;12.60;3.23;;;;;;;16.95;100.00;99144.28;5227436;28;20124;-79
2023/10/19 07:03:38;;;;;;;8.77;2.80;;;;;;;16.90;100.00;99113.91;5228461;28;20805;-79
2023/10/19 07:06:13;;;;;;;10.47;2.60;;;;;;;17.19;100.00;99147.78;5228944;28;20034;-79
2023/10/19 07:08:46;;;;;;;10.97;2.87;;;;;;;17.07;100.00;99129.63;5228136;28;20579;-79
2023/10/19 07:11:17;;;;;;;9.67;2.80;;;;;;;17.21;100.00;99149.22;5226380;28;20021;-79
2023/10/19 07:13:50;;;;;;;9.07;3.10;;;;;;;17.16;100.00;99139.19;5228243;28;20085;-79
2023/10/19 07:16:22;;;;;;;15.03;3.50;;;;;;;17.16;100.00;99141.84;5226699;28;20183;-79
2023/10/19 07:18:53;;;;;;;9.90;2.53;;;;;;;17.16;100.00;99138.38;5228724;28;20025;-79
2023/10/19 07:21:25;;;;;;;12.00;3.10;;;;;;;17.27;100.00;99166.22;5226849;28;20032;-79
2023/10/19 07:24:01;;;;;;;11.37;3.43;;;;;;;17.23;100.00;99157.81;5228443;28;20072;-79
2023/10/19 07:26:41;;;;;;;14.70;3.20;;;;;;;17.14;100.00;99153.63;5227079;28;20021;-79
2023/10/19 07:29:14;;;;;;;13.50;3.50;;;;;;;17.20;100.00;99138.84;5228351;28;20025;-79
2023/10/19 07:31:46;;;;;;;13.00;2.83;;;;;;;17.30;100.00;99136.75;5228460;28;20275;-79
2023/10/19 07:34:18;;;;;;;9.93;2.40;;;;;;;17.29;100.00;99133.31;5227841;28;20083;-79
2023/10/19 07:36:49;;;;;;;10.97;2.50;;;;;;;17.32;100.00;99134.78;5227514;28;20233;-79
2023/10/19 07:39:22;;;;;;;11.67;2.30;;;;;;;17.43;100.00;99154.69;5243446;28;20325;-79
2023/10/19 07:41:54;;;;;;;9.97;2.20;;;;;;;17.23;100.00;99112.84;5225544;28;20036;-79
2023/10/19 07:44:25;;;;;;;9.80;2.50;;;;;;;17.36;100.00;99117.53;5226480;28;20025;-79
2023/10/19 07:46:57;;;;;;;8.13;2.40;;;;;;;17.48;100.00;99130.34;5228531;28;20021;-79
2023/10/19 07:49:30;;;;;;;12.03;2.70;;;;;;;17.50;100.00;99123.03;5226959;28;20033;-79
2023/10/19 07:52:03;;;;;;;9.18;2.58;;;;;;;17.52;100.00;99137.72;5227762;28;20064;-79
2023/10/19 07:54:35;;;;;;;10.70;2.33;;;;;;;17.38;100.00;99127.94;5228015;28;20032;-79
2023/10/19 07:57:06;;;;;;;18.53;2.97;;;;;;;17.45;100.00;99131.53;5226620;28;20041;-79
2023/10/19 07:59:37;;;;;;;15.10;2.83;;;;;;;17.41;100.00;99115.19;5227316;28;20227;-79
2023/10/19 08:02:09;;;;;;;24.40;4.23;;;;;;;17.44;100.00;99119.28;5226498;28;20146;-79
2023/10/19 08:04:40;;;;;;;11.40;2.67;;;;;;;17.44;100.00;99119.28;5227427;28;20037;-79
2023/10/19 08:07:11;;;;;;;16.87;3.87;;;;;;;17.39;100.00;99109.25;5227664;28;20536;-79
2023/10/19 08:09:43;;;;;;;6.53;2.37;;;;;;;17.65;100.00;99147.72;5227579;28;20021;-79
2023/10/19 08:12:15;;;;;;;9.37;2.80;;;;;;;17.58;100.00;99130.06;5225474;28;20128;-79
2023/10/19 08:14:46;;;;;;;11.97;2.93;;;;;;;17.35;100.00;99105.31;5228215;28;20098;-79
2023/10/19 08:17:17;;;;;;;10.97;3.13;;;;;;;17.53;100.00;99106.78;5226766;28;20077;-79
2023/10/19 08:19:49;;;;;;;12.63;2.63;;;;;;;17.66;100.00;99112.28;5227813;28;20040;-79
2023/10/19 08:22:21;;;;;;;9.93;2.57;;;;;;;17.72;100.00;99094.03;5227250;28;20057;-79
2023/10/19 08:24:52;;;;;;;9.83;2.60;;;;;;;17.80;100.00;99095.78;5226023;28;20021;-79
2023/10/19 08:27:24;;;;;;;10.47;2.43;;;;;;;17.88;100.00;99099.16;5226618;28;20025;-79
2023/10/19 08:29:55;;;;;;;10.80;2.97;;;;;;;18.02;100.00;99105.44;5226740;28;20032;-79
2023/10/19 08:32:26;;;;;;;15.27;3.73;;;;;;;17.96;100.00;99089.47;5227572;28;20033;-79
2023/10/19 08:34:58;;;;;;;10.73;3.17;;;;;;;18.19;100.00;99117.69;5227023;28;20028;-79
2023/10/19 08:37:29;;;;;;;11.00;3.00;;;;;;;18.16;100.00;99099.50;5227385;28;20108;-79
2023/10/19 08:40:01;;;;;;;9.70;2.60;;;;;;;18.32;100.00;99117.88;5227196;28;20030;-79
2023/10/19 08:42:34;;;;;;;6.13;1.90;;;;;;;18.34;100.00;99117.69;5238492;28;20036;-79
2023/10/19 08:45:08;;;;;;;12.67;4.53;;;;;;;18.41;100.00;99112.44;5239944;28;20345;-79
2023/10/19 08:48:00;;;;;;;9.20;2.40;;;;;;;19.10;100.00;99127.03;5236216;28;20041;-79
2023/10/19 08:50:35;;;;;;;9.80;2.33;;;;;;;19.23;100.00;99109.59;5236157;28;20477;-80
2023/10/19 08:53:08;;;;;;;6.37;1.97;;;;;;;20.35;100.00;99078.75;5233688;28;20025;-80
2023/10/19 08:55:40;;;;;;;13.30;3.33;;;;;;;21.84;100.00;99108.13;5229732;28;20033;-80
2023/10/19 08:58:13;;;;;;;8.87;2.27;;;;;;;23.30;100.00;99112.25;5228124;28;20064;-80
2023/10/19 09:00:51;;;;;;;11.13;2.43;;;;;;;23.74;100.00;99104.22;5226829;28;20044;-80
2023/10/19 09:03:25;;;;;;;13.13;2.65;;;;;;;24.84;100.00;99136.63;5226474;28;20370;-80
2023/10/19 09:05:56;;;;;;;;;;;;;;;27.43;100.00;99128.66;5227741;28;20056;-80
2023/10/19 09:08:38;;;;;;;8.30;2.40;;;;;;;26.73;100.00;99084.06;5225130;28;19917;-80
2023/10/19 09:11:13;;;;;;;7.72;2.50;;;;;;;27.63;100.00;99130.81;5226247;28;20029;-80
2023/10/19 09:13:48;;;;;;;10.52;2.40;;;;;;;28.34;100.00;99125.81;5226843;28;20057;-81
2023/10/19 09:16:21;;;;;;;10.00;3.00;;;;;;;28.12;100.00;99098.91;5226529;28;20556;-81
2023/10/19 09:18:53;;;;;;;9.55;2.80;;;;;;;26.75;100.00;99076.56;5226118;28;20055;-80
2023/10/19 09:21:24;;;;;;;11.35;2.50;;;;;;;25.47;100.00;99070.09;5226878;28;20037;-81
2023/10/19 09:23:57;;;;;;;10.32;2.83;;;;;;;24.60;100.00;99056.28;5225117;28;20056;-80
2023/10/19 09:26:28;;;;;;;12.07;3.50;;;;;;;24.55;100.00;99067.66;5223761;28;20132;-80
2023/10/19 09:29:00;;;;;;;8.45;2.97;;;;;;;23.93;100.00;99058.78;5226305;28;20082;-80
2023/10/19 09:31:31;;;;;;;9.70;2.90;;;;;;;25.32;100.00;99062.56;5242348;28;20576;-81
2023/10/19 09:34:05;;;;;;;13.60;2.50;;;;;;;26.10;100.00;99074.88;5226435;28;20428;-81
2023/10/19 09:36:37;;;;;;;9.02;2.50;;;;;;;25.10;100.00;99081.06;5226317;28;20060;-81
2023/10/19 09:39:12;;;;;;;11.82;3.45;;;;;;;25.11;100.00;99071.97;5226439;28;20021;-81
2023/10/19 09:41:44;;;;;;;9.20;2.95;;;;;;;25.67;100.00;99094.94;5224812;28;20357;-81
2023/10/19 09:44:22;;;;;;;7.00;2.78;;;;;;;25.27;100.00;99091.91;5226303;28;20028;-80
2023/10/19 09:46:58;;;;;;;9.30;2.92;;;;;;;25.12;100.00;99063.72;5226249;28;20029;-80
2023/10/19 09:49:29;;;;;;;10.50;3.67;;;;;;;24.37;100.00;99055.16;5227376;28;20022;-80
2023/10/19 09:52:01;;;;;;;9.32;3.05;;;;;;;24.04;100.00;99057.22;5240401;28;20028;-80
2023/10/19 09:55:00;;;;;;;12.23;2.50;;;;;;;24.35;100.00;99092.84;5224925;28;20482;-80
2023/10/19 09:57:36;;;;;;;8.73;2.17;;;;;;;23.60;100.00;99078.72;5226712;28;20032;-80
2023/10/19 10:00:15;;;;;;;9.00;2.45;;;;;;;23.06;100.00;99050.63;5226511;28;20039;-80
2023/10/19 10:02:46;;;;;;;9.07;1.95;;;;;;;22.63;100.00;99045.00;5229707;28;20212;-80
2023/10/19 10:05:42;;;;;;;6.28;2.33;;;;;;;23.18;100.00;99086.25;5229893;28;20554;-80
2023/10/19 10:08:16;;;;;;;11.68;3.13;;;;;;;22.54;100.00;99078.28;5229553;28;20029;-80
2023/10/19 10:10:49;;;;;;;7.35;2.50;;;;;;;22.00;100.00;99036.72;5228618;28;20197;-80
2023/10/19 10:13:23;;;;;;;21.02;2.67;;;;;;;22.38;100.00;99087.63;5229957;28;20055;-80
2023/10/19 10:15:57;;;;;;;9.48;2.97;;;;;;;22.00;100.00;99044.72;5228104;28;20075;-80
2023/10/19 10:18:32;;;;;;;8.70;2.55;;;;;;;22.09;100.00;99034.63;5229077;28;20495;-80
2023/10/19 10:21:16;;;;;;;11.82;3.25;;;;;;;22.43;100.00;99072.59;5229465;28;20024;-80
2023/10/19 10:23:59;;;;;;;8.43;2.53;;;;;;;22.30;100.00;99062.00;5228045;28;20039;-80
2023/10/19 10:26:51;;;;;;;10.88;2.55;;;;;;;21.90;100.00;99071.81;5228432;28;20446;-80
2023/10/19 10:29:23;;;;;;;12.05;4.07;;;;;;;21.75;100.00;99074.69;5228734;28;20451;-79
2023/10/19 10:31:55;;;;;;;8.35;2.55;;;;;;;21.86;100.00;99086.59;5230139;28;20030;-80
2023/10/19 10:34:42;;;;;;;10.10;2.73;;;;;;;22.17;100.00;99097.53;5228997;28;20389;-79
2023/10/19 10:37:14;;;;;;;6.90;2.05;;;;;;;21.79;100.00;99056.44;5230126;28;20060;-79
2023/10/19 10:39:45;;;;;;;12.13;2.72;;;;;;;21.48;100.00;99056.97;5226592;28;20445;-79
2023/10/19 10:42:16;;;;;;;11.02;2.53;;;;;;;21.73;100.00;99061.59;5229130;28;20354;-80
2023/10/19 10:44:52;;;;;;;12.63;2.70;;;;;;;21.75;100.00;99064.03;5230445;28;20040;-80
2023/10/19 10:47:29;;;;;;;12.43;2.60;;;;;;;21.54;100.00;99051.81;5228990;28;20034;-80
2023/10/19 10:50:01;;;;;;;9.77;2.20;;;;;;;21.52;100.00;99068.81;5229103;28;20026;-80
2023/10/19 10:52:34;;;;;;;11.07;2.23;;;;;;;21.52;100.00;99068.81;5227291;28;20501;-80
2023/10/19 10:55:13;;;;;;;10.03;2.60;;;;;;;21.75;100.00;99075.53;5243813;28;20302;-80
2023/10/19 10:57:47;;;;;;;12.98;3.17;;;;;;;21.51;100.00;99045.88;5229233;28;20060;-80
2023/10/19 11:00:20;;;;;;;10.57;2.40;;;;;;;21.46;100.00;99072.31;5229003;28;20473;-79
2023/10/19 11:03:09;;;;;;;12.73;3.13;;;;;;;22.02;100.00;99068.47;5229150;28;20021;-79
2023/10/19 11:05:41;;;;;;;11.23;3.20;;;;;;;21.70;100.00;99051.34;5229475;28;20103;-79
2023/10/19 11:08:14;;;;;;;9.87;2.67;;;;;;;21.61;100.00;99047.28;5228831;28;20022;-79
2023/10/19 11:10:46;;;;;;;12.90;3.10;;;;;;;21.81;100.00;99075.75;5228149;28;20117;-79
2023/10/19 11:13:23;;;;;;;13.17;3.03;;;;;;;21.55;100.00;99027.63;5226569;28;20314;-79
2023/10/19 11:15:58;;;;;;;11.63;2.87;;;;;;;21.51;100.00;99045.88;5228121;28;20053;-79
2023/10/19 11:18:30;;;;;;;9.53;2.93;;;;;;;21.58;100.00;99056.50;5227092;28;20179;-79
2023/10/19 11:21:07;;;;;;;10.23;2.27;;;;;;;21.59;100.00;99033.38;5227300;28;20036;-79
2023/10/19 11:23:49;;;;;;;18.43;4.40;;;;;;;22.03;100.00;99043.50;5226945;28;20057;-79
2023/10/19 11:26:22;;;;;;;12.40;3.00;;;;;;;21.70;100.00;99013.22;5226975;28;20119;-79
2023/10/19 11:29:01;;;;;;;11.27;2.50;;;;;;;21.73;100.00;99021.63;5227520;28;20672;-79
2023/10/19 11:31:39;;;;;;;8.50;2.37;;;;;;;21.62;100.00;99023.13;5227909;28;20538;-78
2023/10/19 11:34:13;;;;;;;10.17;3.23;;;;;;;21.54;100.00;99011.88;5227734;28;20256;-79
2023/10/19 11:36:45;;;;;;;11.27;2.60;;;;;;;21.61;100.00;98994.81;5228922;28;20017;-79
2023/10/19 11:39:16;;;;;;;10.03;2.77;;;;;;;21.43;100.00;99008.84;5226450;28;20476;-79
2023/10/19 11:41:48;;;;;;;9.83;2.50;;;;;;;21.54;100.00;99015.34;5227995;28;20048;-79
2023/10/19 11:44:19;;;;;;;13.30;3.00;;;;;;;21.48;100.00;99006.34;5227337;28;20064;-79
2023/10/19 11:46:50;;;;;;;13.47;4.13;;;;;;;21.56;100.00;99007.13;5228495;28;20545;-79
2023/10/19 11:49:22;;;;;;;11.73;2.77;;;;;;;21.32;100.00;99006.78;5228334;28;20112;-79
2023/10/19 11:51:54;;;;;;;8.40;2.27;;;;;;;21.20;100.00;99014.59;5226727;28;20075;-79
2023/10/19 11:54:26;;;;;;;9.20;2.87;;;;;;;21.07;100.00;98988.84;5226399;28;20379;-79
2023/10/19 11:56:57;;;;;;;12.10;4.47;;;;;;;21.21;100.00;98993.09;5227363;28;20027;-79